sensor_id;sensor_type;location;lat;lon;timestamp;P1;durP1;ratioP1;P2;durP2;ratioP2
43487;SDS011;29078;41.932;25.554;2023-04-25T00:01:35;8.65;;;7.90;;
43487;SDS011;29078;41.932;25.554;2023-04-25T00:04:01;9.35;;;7.70;;
43487;SDS011;29078;41.932;25.554;2023-04-25T00:06:27;8.52;;;7.63;;
43487;SDS011;29078;41.932;25.554;2023-04-25T00:08:54;9.13;;;8.10;;
43487;SDS011;29078;41.932;25.554;2023-04-25T00:11:21;8.65;;;7.43;;
43487;SDS011;29078;41.932;25.554;2023-04-25T00:13:47;7.72;;;7.03;;
43487;SDS011;29078;41.932;25.554;2023-04-25T00:16:13;8.23;;;7.22;;
43487;SDS011;29078;41.932;25.554;2023-04-25T00:18:41;8.48;;;7.28;;
43487;SDS011;29078;41.932;25.554;2023-04-25T00:21:07;9.55;;;8.07;;
43487;SDS011;29078;41.932;25.554;2023-04-25T00:23:32;8.63;;;7.72;;
43487;SDS011;29078;41.932;25.554;2023-04-25T00:25:58;7.72;;;6.93;;
43487;SDS011;29078;41.932;25.554;2023-04-25T00:28:23;8.68;;;7.50;;
43487;SDS011;29078;41.932;25.554;2023-04-25T00:30:48;7.93;;;7.13;;
43487;SDS011;29078;41.932;25.554;2023-04-25T00:33:14;9.90;;;7.55;;
43487;SDS011;29078;41.932;25.554;2023-04-25T00:35:39;8.82;;;8.02;;
43487;SDS011;29078;41.932;25.554;2023-04-25T00:38:05;9.70;;;7.07;;
43487;SDS011;29078;41.932;25.554;2023-04-25T00:40:30;8.73;;;7.30;;
43487;SDS011;29078;41.932;25.554;2023-04-25T00:42:55;8.30;;;7.07;;
43487;SDS011;29078;41.932;25.554;2023-04-25T00:45:21;8.88;;;7.50;;
43487;SDS011;29078;41.932;25.554;2023-04-25T00:47:46;8.02;;;7.22;;
43487;SDS011;29078;41.932;25.554;2023-04-25T00:50:13;7.88;;;7.07;;
43487;SDS011;29078;41.932;25.554;2023-04-25T00:52:43;8.35;;;7.55;;
43487;SDS011;29078;41.932;25.554;2023-04-25T00:55:10;8.35;;;7.20;;
43487;SDS011;29078;41.932;25.554;2023-04-25T00:57:37;9.07;;;8.18;;
43487;SDS011;29078;41.932;25.554;2023-04-25T01:00:04;10.90;;;8.30;;
43487;SDS011;29078;41.932;25.554;2023-04-25T01:02:32;9.05;;;8.15;;
43487;SDS011;29078;41.932;25.554;2023-04-25T01:04:58;9.20;;;8.35;;
43487;SDS011;29078;41.932;25.554;2023-04-25T01:07:23;9.07;;;8.05;;
43487;SDS011;29078;41.932;25.554;2023-04-25T01:09:51;9.68;;;7.68;;
43487;SDS011;29078;41.932;25.554;2023-04-25T01:12:17;8.73;;;7.88;;
43487;SDS011;29078;41.932;25.554;2023-04-25T01:14:43;9.00;;;7.72;;
43487;SDS011;29078;41.932;25.554;2023-04-25T01:17:09;10.20;;;7.97;;
43487;SDS011;29078;41.932;25.554;2023-04-25T01:19:35;11.23;;;8.30;;
43487;SDS011;29078;41.932;25.554;2023-04-25T01:22:00;9.02;;;8.13;;
43487;SDS011;29078;41.932;25.554;2023-04-25T01:24:26;9.57;;;7.82;;
43487;SDS011;29078;41.932;25.554;2023-04-25T01:26:52;10.30;;;8.23;;
43487;SDS011;29078;41.932;25.554;2023-04-25T01:29:21;8.77;;;7.70;;
43487;SDS011;29078;41.932;25.554;2023-04-25T01:31:47;9.48;;;8.52;;
43487;SDS011;29078;41.932;25.554;2023-04-25T01:34:13;10.18;;;8.25;;
43487;SDS011;29078;41.932;25.554;2023-04-25T01:36:38;10.98;;;7.85;;
43487;SDS011;29078;41.932;25.554;2023-04-25T01:39:05;10.70;;;7.28;;
43487;SDS011;29078;41.932;25.554;2023-04-25T01:41:30;9.00;;;7.30;;
43487;SDS011;29078;41.932;25.554;2023-04-25T01:43:56;7.78;;;7.07;;
43487;SDS011;29078;41.932;25.554;2023-04-25T01:46:21;8.82;;;7.80;;
43487;SDS011;29078;41.932;25.554;2023-04-25T01:48:47;8.52;;;7.53;;
43487;SDS011;29078;41.932;25.554;2023-04-25T01:51:13;8.35;;;6.70;;
43487;SDS011;29078;41.932;25.554;2023-04-25T01:53:38;8.27;;;7.45;;
43487;SDS011;29078;41.932;25.554;2023-04-25T01:56:04;8.00;;;6.82;;
43487;SDS011;29078;41.932;25.554;2023-04-25T01:58:30;9.18;;;8.30;;
43487;SDS011;29078;41.932;25.554;2023-04-25T02:00:55;8.93;;;7.60;;
43487;SDS011;29078;41.932;25.554;2023-04-25T02:03:21;7.80;;;6.65;;
43487;SDS011;29078;41.932;25.554;2023-04-25T02:05:46;7.28;;;6.28;;
43487;SDS011;29078;41.932;25.554;2023-04-25T02:08:13;7.28;;;6.60;;
43487;SDS011;29078;41.932;25.554;2023-04-25T02:10:38;13.13;;;7.32;;
43487;SDS011;29078;41.932;25.554;2023-04-25T02:13:04;7.40;;;6.70;;
43487;SDS011;29078;41.932;25.554;2023-04-25T02:15:30;7.20;;;6.47;;
43487;SDS011;29078;41.932;25.554;2023-04-25T02:17:55;8.25;;;5.90;;
43487;SDS011;29078;41.932;25.554;2023-04-25T02:20:21;6.88;;;6.22;;
43487;SDS011;29078;41.932;25.554;2023-04-25T02:22:48;8.15;;;6.25;;
43487;SDS011;29078;41.932;25.554;2023-04-25T02:25:13;6.15;;;5.22;;
43487;SDS011;29078;41.932;25.554;2023-04-25T02:27:40;6.03;;;5.35;;
43487;SDS011;29078;41.932;25.554;2023-04-25T02:30:06;5.75;;;5.25;;
43487;SDS011;29078;41.932;25.554;2023-04-25T02:32:32;5.90;;;5.40;;
43487;SDS011;29078;41.932;25.554;2023-04-25T02:34:59;5.20;;;4.70;;
43487;SDS011;29078;41.932;25.554;2023-04-25T02:37:30;6.15;;;4.85;;
43487;SDS011;29078;41.932;25.554;2023-04-25T02:39:56;6.97;;;5.07;;
43487;SDS011;29078;41.932;25.554;2023-04-25T02:42:21;5.47;;;4.70;;
43487;SDS011;29078;41.932;25.554;2023-04-25T02:44:47;6.47;;;4.95;;
43487;SDS011;29078;41.932;25.554;2023-04-25T02:47:12;5.53;;;5.03;;
43487;SDS011;29078;41.932;25.554;2023-04-25T02:49:37;6.20;;;4.63;;
43487;SDS011;29078;41.932;25.554;2023-04-25T02:52:03;5.30;;;4.55;;
43487;SDS011;29078;41.932;25.554;2023-04-25T02:54:28;4.85;;;4.35;;
43487;SDS011;29078;41.932;25.554;2023-04-25T02:56:54;6.28;;;4.57;;
43487;SDS011;29078;41.932;25.554;2023-04-25T02:59:20;5.28;;;4.78;;
43487;SDS011;29078;41.932;25.554;2023-04-25T03:01:45;5.80;;;5.15;;
43487;SDS011;29078;41.932;25.554;2023-04-25T03:04:10;5.88;;;4.80;;
43487;SDS011;29078;41.932;25.554;2023-04-25T03:06:36;7.90;;;4.70;;
43487;SDS011;29078;41.932;25.554;2023-04-25T03:09:01;9.27;;;5.05;;
43487;SDS011;29078;41.932;25.554;2023-04-25T03:11:27;8.55;;;5.07;;
43487;SDS011;29078;41.932;25.554;2023-04-25T03:13:52;6.00;;;5.38;;
43487;SDS011;29078;41.932;25.554;2023-04-25T03:16:17;8.70;;;5.40;;
43487;SDS011;29078;41.932;25.554;2023-04-25T03:18:43;8.20;;;5.25;;
43487;SDS011;29078;41.932;25.554;2023-04-25T03:21:08;7.35;;;5.53;;
43487;SDS011;29078;41.932;25.554;2023-04-25T03:23:34;6.35;;;5.30;;
43487;SDS011;29078;41.932;25.554;2023-04-25T03:25:59;7.13;;;5.95;;
43487;SDS011;29078;41.932;25.554;2023-04-25T03:28:24;14.68;;;10.70;;
43487;SDS011;29078;41.932;25.554;2023-04-25T03:30:50;11.75;;;6.97;;
43487;SDS011;29078;41.932;25.554;2023-04-25T03:33:15;6.68;;;5.75;;
43487;SDS011;29078;41.932;25.554;2023-04-25T03:35:41;10.65;;;6.32;;
43487;SDS011;29078;41.932;25.554;2023-04-25T03:38:07;13.27;;;7.63;;
43487;SDS011;29078;41.932;25.554;2023-04-25T03:40:33;10.68;;;7.32;;
43487;SDS011;29078;41.932;25.554;2023-04-25T03:42:58;9.88;;;7.00;;
43487;SDS011;29078;41.932;25.554;2023-04-25T03:45:23;11.00;;;6.93;;
43487;SDS011;29078;41.932;25.554;2023-04-25T03:47:49;13.98;;;8.02;;
43487;SDS011;29078;41.932;25.554;2023-04-25T03:50:15;11.60;;;7.07;;
43487;SDS011;29078;41.932;25.554;2023-04-25T03:52:40;9.90;;;7.15;;
43487;SDS011;29078;41.932;25.554;2023-04-25T03:55:06;15.40;;;7.45;;
43487;SDS011;29078;41.932;25.554;2023-04-25T03:57:32;10.65;;;6.40;;
43487;SDS011;29078;41.932;25.554;2023-04-25T03:59:57;11.35;;;6.47;;
43487;SDS011;29078;41.932;25.554;2023-04-25T04:02:22;8.93;;;6.20;;
43487;SDS011;29078;41.932;25.554;2023-04-25T04:04:48;8.55;;;6.75;;
43487;SDS011;29078;41.932;25.554;2023-04-25T04:07:13;9.07;;;6.68;;
43487;SDS011;29078;41.932;25.554;2023-04-25T04:09:39;8.90;;;7.25;;
43487;SDS011;29078;41.932;25.554;2023-04-25T04:12:04;15.73;;;7.55;;
43487;SDS011;29078;41.932;25.554;2023-04-25T04:14:30;12.98;;;7.38;;
43487;SDS011;29078;41.932;25.554;2023-04-25T04:16:55;14.60;;;7.63;;
43487;SDS011;29078;41.932;25.554;2023-04-25T04:19:21;19.02;;;8.07;;
43487;SDS011;29078;41.932;25.554;2023-04-25T04:21:46;14.15;;;7.85;;
43487;SDS011;29078;41.932;25.554;2023-04-25T04:24:11;13.75;;;7.82;;
43487;SDS011;29078;41.932;25.554;2023-04-25T04:26:37;16.17;;;7.70;;
43487;SDS011;29078;41.932;25.554;2023-04-25T04:29:03;12.23;;;7.50;;
43487;SDS011;29078;41.932;25.554;2023-04-25T04:31:29;14.88;;;7.93;;
43487;SDS011;29078;41.932;25.554;2023-04-25T04:33:55;13.00;;;8.05;;
43487;SDS011;29078;41.932;25.554;2023-04-25T04:36:20;12.27;;;8.13;;
43487;SDS011;29078;41.932;25.554;2023-04-25T04:38:47;13.75;;;8.82;;
43487;SDS011;29078;41.932;25.554;2023-04-25T04:41:12;11.40;;;7.93;;
43487;SDS011;29078;41.932;25.554;2023-04-25T04:43:37;9.05;;;7.38;;
43487;SDS011;29078;41.932;25.554;2023-04-25T04:46:04;10.20;;;8.30;;
43487;SDS011;29078;41.932;25.554;2023-04-25T04:48:31;11.52;;;9.13;;
43487;SDS011;29078;41.932;25.554;2023-04-25T04:51:00;10.88;;;8.38;;
43487;SDS011;29078;41.932;25.554;2023-04-25T04:53:25;8.68;;;7.40;;
43487;SDS011;29078;41.932;25.554;2023-04-25T04:55:51;9.93;;;7.63;;
43487;SDS011;29078;41.932;25.554;2023-04-25T04:58:17;12.52;;;8.75;;
43487;SDS011;29078;41.932;25.554;2023-04-25T05:00:43;11.18;;;7.90;;
43487;SDS011;29078;41.932;25.554;2023-04-25T05:03:08;13.65;;;7.03;;
43487;SDS011;29078;41.932;25.554;2023-04-25T05:05:34;8.32;;;7.03;;
43487;SDS011;29078;41.932;25.554;2023-04-25T05:07:59;9.27;;;7.60;;
43487;SDS011;29078;41.932;25.554;2023-04-25T05:10:25;8.27;;;7.30;;
43487;SDS011;29078;41.932;25.554;2023-04-25T05:12:50;9.27;;;8.38;;
43487;SDS011;29078;41.932;25.554;2023-04-25T05:15:15;9.65;;;7.65;;
43487;SDS011;29078;41.932;25.554;2023-04-25T05:17:41;12.20;;;8.32;;
43487;SDS011;29078;41.932;25.554;2023-04-25T05:20:07;11.50;;;8.82;;
43487;SDS011;29078;41.932;25.554;2023-04-25T05:22:34;11.85;;;8.55;;
43487;SDS011;29078;41.932;25.554;2023-04-25T05:24:59;11.30;;;8.88;;
43487;SDS011;29078;41.932;25.554;2023-04-25T05:27:25;9.68;;;8.70;;
43487;SDS011;29078;41.932;25.554;2023-04-25T05:29:50;9.35;;;8.45;;
43487;SDS011;29078;41.932;25.554;2023-04-25T05:32:16;14.35;;;9.00;;
43487;SDS011;29078;41.932;25.554;2023-04-25T05:34:42;9.18;;;7.80;;
43487;SDS011;29078;41.932;25.554;2023-04-25T05:37:08;9.90;;;8.90;;
43487;SDS011;29078;41.932;25.554;2023-04-25T05:39:33;12.50;;;9.25;;
43487;SDS011;29078;41.932;25.554;2023-04-25T05:41:58;9.20;;;7.88;;
43487;SDS011;29078;41.932;25.554;2023-04-25T05:44:24;9.45;;;7.63;;
43487;SDS011;29078;41.932;25.554;2023-04-25T05:46:49;9.95;;;7.30;;
43487;SDS011;29078;41.932;25.554;2023-04-25T05:49:15;9.43;;;7.63;;
43487;SDS011;29078;41.932;25.554;2023-04-25T05:51:41;7.50;;;6.72;;
43487;SDS011;29078;41.932;25.554;2023-04-25T05:54:06;7.57;;;6.28;;
43487;SDS011;29078;41.932;25.554;2023-04-25T05:56:31;5.80;;;5.30;;
43487;SDS011;29078;41.932;25.554;2023-04-25T05:58:57;6.57;;;5.82;;
43487;SDS011;29078;41.932;25.554;2023-04-25T06:01:23;7.05;;;5.65;;
43487;SDS011;29078;41.932;25.554;2023-04-25T06:03:48;7.20;;;6.15;;
43487;SDS011;29078;41.932;25.554;2023-04-25T06:06:14;9.52;;;8.27;;
43487;SDS011;29078;41.932;25.554;2023-04-25T06:08:40;8.15;;;7.03;;
43487;SDS011;29078;41.932;25.554;2023-04-25T06:11:05;10.30;;;7.35;;
43487;SDS011;29078;41.932;25.554;2023-04-25T06:13:31;8.35;;;6.95;;
43487;SDS011;29078;41.932;25.554;2023-04-25T06:15:57;6.75;;;6.07;;
43487;SDS011;29078;41.932;25.554;2023-04-25T06:18:22;6.45;;;5.85;;
43487;SDS011;29078;41.932;25.554;2023-04-25T06:20:47;6.75;;;5.97;;
43487;SDS011;29078;41.932;25.554;2023-04-25T06:23:13;7.13;;;6.00;;
43487;SDS011;29078;41.932;25.554;2023-04-25T06:25:38;10.82;;;8.13;;
43487;SDS011;29078;41.932;25.554;2023-04-25T06:28:03;6.70;;;5.93;;
43487;SDS011;29078;41.932;25.554;2023-04-25T06:30:29;9.45;;;6.75;;
43487;SDS011;29078;41.932;25.554;2023-04-25T06:32:54;8.68;;;6.43;;
43487;SDS011;29078;41.932;25.554;2023-04-25T06:35:20;10.65;;;9.02;;
43487;SDS011;29078;41.932;25.554;2023-04-25T06:37:47;8.13;;;6.03;;
43487;SDS011;29078;41.932;25.554;2023-04-25T06:40:12;8.43;;;6.93;;
43487;SDS011;29078;41.932;25.554;2023-04-25T06:42:38;9.77;;;6.90;;
43487;SDS011;29078;41.932;25.554;2023-04-25T06:45:03;7.22;;;5.65;;
43487;SDS011;29078;41.932;25.554;2023-04-25T06:47:29;7.38;;;5.60;;
43487;SDS011;29078;41.932;25.554;2023-04-25T06:49:55;8.48;;;5.50;;
43487;SDS011;29078;41.932;25.554;2023-04-25T06:52:20;6.65;;;4.97;;
43487;SDS011;29078;41.932;25.554;2023-04-25T06:54:46;7.60;;;4.82;;
43487;SDS011;29078;41.932;25.554;2023-04-25T06:57:11;7.10;;;4.68;;
43487;SDS011;29078;41.932;25.554;2023-04-25T06:59:37;6.75;;;5.70;;
43487;SDS011;29078;41.932;25.554;2023-04-25T07:02:02;5.78;;;5.28;;
43487;SDS011;29078;41.932;25.554;2023-04-25T07:04:28;5.72;;;4.88;;
43487;SDS011;29078;41.932;25.554;2023-04-25T07:06:54;7.55;;;5.82;;
43487;SDS011;29078;41.932;25.554;2023-04-25T07:09:20;10.48;;;6.90;;
43487;SDS011;29078;41.932;25.554;2023-04-25T07:11:45;9.25;;;7.65;;
43487;SDS011;29078;41.932;25.554;2023-04-25T07:14:10;7.93;;;6.18;;
43487;SDS011;29078;41.932;25.554;2023-04-25T07:16:36;7.43;;;6.13;;
43487;SDS011;29078;41.932;25.554;2023-04-25T07:19:01;6.97;;;6.22;;
43487;SDS011;29078;41.932;25.554;2023-04-25T07:21:27;9.07;;;7.85;;
43487;SDS011;29078;41.932;25.554;2023-04-25T07:23:52;8.98;;;6.63;;
43487;SDS011;29078;41.932;25.554;2023-04-25T07:26:18;9.70;;;8.23;;
43487;SDS011;29078;41.932;25.554;2023-04-25T07:28:43;7.55;;;6.68;;
43487;SDS011;29078;41.932;25.554;2023-04-25T07:31:09;8.85;;;7.30;;
43487;SDS011;29078;41.932;25.554;2023-04-25T07:33:34;9.00;;;8.10;;
43487;SDS011;29078;41.932;25.554;2023-04-25T07:36:00;9.70;;;8.32;;
43487;SDS011;29078;41.932;25.554;2023-04-25T07:38:25;9.13;;;8.18;;
43487;SDS011;29078;41.932;25.554;2023-04-25T07:40:51;8.00;;;7.22;;
43487;SDS011;29078;41.932;25.554;2023-04-25T07:43:17;8.18;;;7.40;;
43487;SDS011;29078;41.932;25.554;2023-04-25T07:45:43;7.07;;;6.38;;
43487;SDS011;29078;41.932;25.554;2023-04-25T07:48:08;8.48;;;7.63;;
43487;SDS011;29078;41.932;25.554;2023-04-25T07:50:35;9.10;;;7.50;;
43487;SDS011;29078;41.932;25.554;2023-04-25T07:53:00;8.38;;;7.47;;
43487;SDS011;29078;41.932;25.554;2023-04-25T07:55:25;10.60;;;7.00;;
43487;SDS011;29078;41.932;25.554;2023-04-25T07:57:51;7.05;;;6.35;;
43487;SDS011;29078;41.932;25.554;2023-04-25T08:00:16;9.35;;;7.28;;
43487;SDS011;29078;41.932;25.554;2023-04-25T08:02:42;6.60;;;5.95;;
43487;SDS011;29078;41.932;25.554;2023-04-25T08:05:08;8.13;;;6.68;;
43487;SDS011;29078;41.932;25.554;2023-04-25T08:07:36;14.40;;;12.88;;
43487;SDS011;29078;41.932;25.554;2023-04-25T08:10:02;14.60;;;11.40;;
43487;SDS011;29078;41.932;25.554;2023-04-25T08:12:28;6.88;;;6.28;;
43487;SDS011;29078;41.932;25.554;2023-04-25T08:14:53;9.45;;;8.45;;
43487;SDS011;29078;41.932;25.554;2023-04-25T08:17:19;7.10;;;5.50;;
43487;SDS011;29078;41.932;25.554;2023-04-25T08:19:44;7.53;;;6.07;;
43487;SDS011;29078;41.932;25.554;2023-04-25T08:22:09;6.10;;;5.07;;
43487;SDS011;29078;41.932;25.554;2023-04-25T08:24:35;8.52;;;6.07;;
43487;SDS011;29078;41.932;25.554;2023-04-25T08:27:00;6.22;;;5.10;;
43487;SDS011;29078;41.932;25.554;2023-04-25T08:29:26;5.93;;;5.18;;
43487;SDS011;29078;41.932;25.554;2023-04-25T08:31:53;5.80;;;5.20;;
43487;SDS011;29078;41.932;25.554;2023-04-25T08:34:18;5.25;;;4.75;;
43487;SDS011;29078;41.932;25.554;2023-04-25T08:36:45;7.70;;;6.35;;
43487;SDS011;29078;41.932;25.554;2023-04-25T08:39:10;6.15;;;5.43;;
43487;SDS011;29078;41.932;25.554;2023-04-25T08:41:36;5.90;;;5.40;;
43487;SDS011;29078;41.932;25.554;2023-04-25T08:44:02;5.07;;;4.57;;
43487;SDS011;29078;41.932;25.554;2023-04-25T08:46:29;6.10;;;5.15;;
43487;SDS011;29078;41.932;25.554;2023-04-25T08:48:58;5.13;;;4.63;;
43487;SDS011;29078;41.932;25.554;2023-04-25T08:51:26;6.20;;;4.80;;
43487;SDS011;29078;41.932;25.554;2023-04-25T08:53:53;10.00;;;9.00;;
43487;SDS011;29078;41.932;25.554;2023-04-25T08:56:18;11.18;;;6.57;;
43487;SDS011;29078;41.932;25.554;2023-04-25T08:58:50;4.18;;;3.72;;
43487;SDS011;29078;41.932;25.554;2023-04-25T09:01:15;4.93;;;3.53;;
43487;SDS011;29078;41.932;25.554;2023-04-25T09:03:42;5.28;;;3.90;;
43487;SDS011;29078;41.932;25.554;2023-04-25T09:06:09;4.32;;;3.70;;
43487;SDS011;29078;41.932;25.554;2023-04-25T09:08:36;3.97;;;3.60;;
43487;SDS011;29078;41.932;25.554;2023-04-25T09:11:05;4.05;;;3.72;;
43487;SDS011;29078;41.932;25.554;2023-04-25T09:13:31;4.13;;;3.72;;
43487;SDS011;29078;41.932;25.554;2023-04-25T09:15:57;4.28;;;3.72;;
43487;SDS011;29078;41.932;25.554;2023-04-25T09:18:23;3.65;;;3.35;;
43487;SDS011;29078;41.932;25.554;2023-04-25T09:20:51;4.32;;;3.40;;
43487;SDS011;29078;41.932;25.554;2023-04-25T09:23:21;6.45;;;3.85;;
43487;SDS011;29078;41.932;25.554;2023-04-25T09:25:48;6.90;;;4.65;;
43487;SDS011;29078;41.932;25.554;2023-04-25T09:28:15;5.97;;;5.38;;
43487;SDS011;29078;41.932;25.554;2023-04-25T09:30:44;7.75;;;5.85;;
43487;SDS011;29078;41.932;25.554;2023-04-25T09:33:11;5.05;;;4.60;;
43487;SDS011;29078;41.932;25.554;2023-04-25T09:35:38;4.95;;;4.45;;
43487;SDS011;29078;41.932;25.554;2023-04-25T09:38:18;6.45;;;5.53;;
43487;SDS011;29078;41.932;25.554;2023-04-25T09:40:45;6.95;;;5.18;;
43487;SDS011;29078;41.932;25.554;2023-04-25T09:43:19;7.15;;;5.63;;
43487;SDS011;29078;41.932;25.554;2023-04-25T09:45:46;6.70;;;4.03;;
43487;SDS011;29078;41.932;25.554;2023-04-25T09:48:16;7.05;;;4.90;;
43487;SDS011;29078;41.932;25.554;2023-04-25T09:53:34;6.15;;;5.47;;
43487;SDS011;29078;41.932;25.554;2023-04-25T09:56:05;3.67;;;3.20;;
43487;SDS011;29078;41.932;25.554;2023-04-25T09:58:34;3.17;;;2.70;;
43487;SDS011;29078;41.932;25.554;2023-04-25T10:01:02;4.65;;;3.28;;
43487;SDS011;29078;41.932;25.554;2023-04-25T10:03:30;3.67;;;3.35;;
43487;SDS011;29078;41.932;25.554;2023-04-25T10:05:58;4.03;;;2.80;;
43487;SDS011;29078;41.932;25.554;2023-04-25T10:08:25;4.85;;;2.55;;
43487;SDS011;29078;41.932;25.554;2023-04-25T10:10:57;4.72;;;3.95;;
43487;SDS011;29078;41.932;25.554;2023-04-25T10:13:28;5.93;;;4.50;;
43487;SDS011;29078;41.932;25.554;2023-04-25T10:15:56;3.75;;;3.20;;
43487;SDS011;29078;41.932;25.554;2023-04-25T10:18:23;3.42;;;3.13;;
43487;SDS011;29078;41.932;25.554;2023-04-25T10:20:50;4.07;;;3.67;;
43487;SDS011;29078;41.932;25.554;2023-04-25T10:23:15;4.20;;;3.53;;
43487;SDS011;29078;41.932;25.554;2023-04-25T10:25:42;5.53;;;4.68;;
43487;SDS011;29078;41.932;25.554;2023-04-25T10:28:08;4.13;;;3.72;;
43487;SDS011;29078;41.932;25.554;2023-04-25T10:30:33;8.15;;;4.68;;
43487;SDS011;29078;41.932;25.554;2023-04-25T10:32:59;5.15;;;4.03;;
43487;SDS011;29078;41.932;25.554;2023-04-25T10:35:25;5.00;;;4.50;;
43487;SDS011;29078;41.932;25.554;2023-04-25T10:38:05;6.72;;;5.40;;
43487;SDS011;29078;41.932;25.554;2023-04-25T10:40:35;6.05;;;5.47;;
43487;SDS011;29078;41.932;25.554;2023-04-25T10:46:01;5.60;;;4.70;;
43487;SDS011;29078;41.932;25.554;2023-04-25T10:48:28;5.40;;;4.47;;
43487;SDS011;29078;41.932;25.554;2023-04-25T10:51:08;6.63;;;5.20;;
43487;SDS011;29078;41.932;25.554;2023-04-25T10:53:43;4.43;;;4.00;;
43487;SDS011;29078;41.932;25.554;2023-04-25T10:56:11;4.22;;;3.70;;
43487;SDS011;29078;41.932;25.554;2023-04-25T10:59:04;4.88;;;4.00;;
43487;SDS011;29078;41.932;25.554;2023-04-25T11:04:03;6.68;;;5.03;;
43487;SDS011;29078;41.932;25.554;2023-04-25T11:06:35;4.03;;;3.63;;
43487;SDS011;29078;41.932;25.554;2023-04-25T11:09:12;4.40;;;3.90;;
43487;SDS011;29078;41.932;25.554;2023-04-25T11:11:40;4.63;;;3.70;;
43487;SDS011;29078;41.932;25.554;2023-04-25T11:14:06;5.85;;;4.10;;
43487;SDS011;29078;41.932;25.554;2023-04-25T11:16:31;4.93;;;3.85;;
43487;SDS011;29078;41.932;25.554;2023-04-25T11:18:57;4.60;;;3.95;;
43487;SDS011;29078;41.932;25.554;2023-04-25T11:21:23;5.45;;;4.00;;
43487;SDS011;29078;41.932;25.554;2023-04-25T11:23:51;5.65;;;3.97;;
43487;SDS011;29078;41.932;25.554;2023-04-25T11:26:18;5.15;;;3.78;;
43487;SDS011;29078;41.932;25.554;2023-04-25T11:28:44;6.45;;;5.00;;
43487;SDS011;29078;41.932;25.554;2023-04-25T11:31:10;5.32;;;4.47;;
43487;SDS011;29078;41.932;25.554;2023-04-25T11:33:35;4.50;;;3.60;;
43487;SDS011;29078;41.932;25.554;2023-04-25T11:36:01;5.53;;;4.20;;
43487;SDS011;29078;41.932;25.554;2023-04-25T11:38:26;5.45;;;4.22;;
43487;SDS011;29078;41.932;25.554;2023-04-25T11:40:53;3.70;;;2.88;;
43487;SDS011;29078;41.932;25.554;2023-04-25T11:43:20;5.53;;;4.97;;
43487;SDS011;29078;41.932;25.554;2023-04-25T11:45:49;6.82;;;6.13;;
43487;SDS011;29078;41.932;25.554;2023-04-25T11:48:16;5.13;;;4.15;;
43487;SDS011;29078;41.932;25.554;2023-04-25T11:50:42;4.22;;;3.83;;
43487;SDS011;29078;41.932;25.554;2023-04-25T11:53:07;3.83;;;2.95;;
43487;SDS011;29078;41.932;25.554;2023-04-25T11:55:33;1.55;;;1.23;;
43487;SDS011;29078;41.932;25.554;2023-04-25T11:57:59;2.05;;;1.10;;
43487;SDS011;29078;41.932;25.554;2023-04-25T12:00:25;0.70;;;0.40;;
43487;SDS011;29078;41.932;25.554;2023-04-25T12:02:53;2.13;;;1.92;;
43487;SDS011;29078;41.932;25.554;2023-04-25T12:05:19;2.92;;;2.10;;
43487;SDS011;29078;41.932;25.554;2023-04-25T12:07:48;1.70;;;1.23;;
43487;SDS011;29078;41.932;25.554;2023-04-25T12:10:14;1.95;;;1.60;;
43487;SDS011;29078;41.932;25.554;2023-04-25T12:12:42;1.70;;;1.60;;
43487;SDS011;29078;41.932;25.554;2023-04-25T12:15:09;1.75;;;1.40;;
43487;SDS011;29078;41.932;25.554;2023-04-25T12:17:40;2.42;;;2.10;;
43487;SDS011;29078;41.932;25.554;2023-04-25T12:20:16;2.42;;;2.00;;
43487;SDS011;29078;41.932;25.554;2023-04-25T12:22:44;2.35;;;2.13;;
43487;SDS011;29078;41.932;25.554;2023-04-25T12:30:56;2.13;;;1.80;;
43487;SDS011;29078;41.932;25.554;2023-04-25T12:33:28;3.30;;;3.00;;
43487;SDS011;29078;41.932;25.554;2023-04-25T12:35:57;2.65;;;2.45;;
43487;SDS011;29078;41.932;25.554;2023-04-25T12:38:28;2.67;;;2.00;;
43487;SDS011;29078;41.932;25.554;2023-04-25T12:40:55;2.38;;;1.90;;
43487;SDS011;29078;41.932;25.554;2023-04-25T12:43:21;1.73;;;1.58;;
43487;SDS011;29078;41.932;25.554;2023-04-25T12:45:50;2.15;;;1.58;;
43487;SDS011;29078;41.932;25.554;2023-04-25T12:48:16;2.70;;;2.50;;
43487;SDS011;29078;41.932;25.554;2023-04-25T12:50:42;2.00;;;1.33;;
43487;SDS011;29078;41.932;25.554;2023-04-25T12:53:08;2.90;;;2.38;;
43487;SDS011;29078;41.932;25.554;2023-04-25T12:55:34;2.78;;;1.70;;
43487;SDS011;29078;41.932;25.554;2023-04-25T12:57:59;7.65;;;6.95;;
43487;SDS011;29078;41.932;25.554;2023-04-25T13:00:24;2.58;;;2.20;;
43487;SDS011;29078;41.932;25.554;2023-04-25T13:02:51;1.30;;;1.20;;
43487;SDS011;29078;41.932;25.554;2023-04-25T13:05:17;3.08;;;1.60;;
43487;SDS011;29078;41.932;25.554;2023-04-25T13:07:42;1.70;;;1.35;;
43487;SDS011;29078;41.932;25.554;2023-04-25T13:10:07;3.92;;;1.13;;
43487;SDS011;29078;41.932;25.554;2023-04-25T13:12:33;2.78;;;2.20;;
43487;SDS011;29078;41.932;25.554;2023-04-25T13:14:58;2.20;;;1.50;;
43487;SDS011;29078;41.932;25.554;2023-04-25T13:17:24;2.08;;;1.25;;
43487;SDS011;29078;41.932;25.554;2023-04-25T13:19:49;2.22;;;1.85;;
43487;SDS011;29078;41.932;25.554;2023-04-25T13:22:14;1.30;;;1.15;;
43487;SDS011;29078;41.932;25.554;2023-04-25T13:24:41;3.95;;;3.58;;
43487;SDS011;29078;41.932;25.554;2023-04-25T13:27:07;3.08;;;1.92;;
43487;SDS011;29078;41.932;25.554;2023-04-25T13:29:33;5.57;;;2.72;;
43487;SDS011;29078;41.932;25.554;2023-04-25T13:32:00;3.08;;;1.80;;
43487;SDS011;29078;41.932;25.554;2023-04-25T13:34:26;2.17;;;1.90;;
43487;SDS011;29078;41.932;25.554;2023-04-25T13:36:52;4.82;;;4.43;;
43487;SDS011;29078;41.932;25.554;2023-04-25T13:39:17;3.60;;;2.25;;
43487;SDS011;29078;41.932;25.554;2023-04-25T13:41:42;2.90;;;1.90;;
43487;SDS011;29078;41.932;25.554;2023-04-25T13:44:08;2.47;;;1.60;;
43487;SDS011;29078;41.932;25.554;2023-04-25T13:46:33;2.75;;;1.77;;
43487;SDS011;29078;41.932;25.554;2023-04-25T13:48:59;1.63;;;1.52;;
43487;SDS011;29078;41.932;25.554;2023-04-25T13:51:26;2.55;;;1.70;;
43487;SDS011;29078;41.932;25.554;2023-04-25T13:53:51;3.72;;;1.70;;
43487;SDS011;29078;41.932;25.554;2023-04-25T13:56:17;4.63;;;1.67;;
43487;SDS011;29078;41.932;25.554;2023-04-25T13:58:44;3.08;;;1.85;;
43487;SDS011;29078;41.932;25.554;2023-04-25T14:01:10;2.20;;;2.00;;
43487;SDS011;29078;41.932;25.554;2023-04-25T14:03:35;2.90;;;2.00;;
43487;SDS011;29078;41.932;25.554;2023-04-25T14:06:01;2.45;;;1.92;;
43487;SDS011;29078;41.932;25.554;2023-04-25T14:08:26;2.75;;;2.00;;
43487;SDS011;29078;41.932;25.554;2023-04-25T14:10:52;2.33;;;2.00;;
43487;SDS011;29078;41.932;25.554;2023-04-25T14:13:17;4.18;;;2.80;;
43487;SDS011;29078;41.932;25.554;2023-04-25T14:15:43;5.13;;;3.15;;
43487;SDS011;29078;41.932;25.554;2023-04-25T14:18:08;2.75;;;2.55;;
43487;SDS011;29078;41.932;25.554;2023-04-25T14:20:33;3.97;;;3.63;;
43487;SDS011;29078;41.932;25.554;2023-04-25T14:22:59;4.00;;;2.45;;
43487;SDS011;29078;41.932;25.554;2023-04-25T14:25:24;3.72;;;2.65;;
43487;SDS011;29078;41.932;25.554;2023-04-25T14:27:50;2.53;;;2.33;;
43487;SDS011;29078;41.932;25.554;2023-04-25T14:30:16;3.00;;;2.80;;
43487;SDS011;29078;41.932;25.554;2023-04-25T14:32:43;4.47;;;2.67;;
43487;SDS011;29078;41.932;25.554;2023-04-25T14:35:09;4.63;;;3.15;;
43487;SDS011;29078;41.932;25.554;2023-04-25T14:37:35;6.72;;;3.28;;
43487;SDS011;29078;41.932;25.554;2023-04-25T14:40:00;2.88;;;2.40;;
43487;SDS011;29078;41.932;25.554;2023-04-25T14:42:25;3.67;;;2.90;;